createdAt,value
2023-04-20T00:01:11.272Z,12.20
2023-04-20T00:03:38.923Z,10.33
2023-04-20T00:06:06.702Z,14.87
2023-04-20T00:08:34.167Z,12.33
2023-04-20T00:11:01.567Z,14.57
2023-04-20T00:13:28.947Z,10.73
2023-04-20T00:15:56.317Z,11.10
2023-04-20T00:18:23.729Z,16.80
2023-04-20T00:20:51.260Z,11.67
2023-04-20T00:23:18.636Z,10.00
2023-04-20T00:25:46.032Z,12.30
2023-04-20T00:28:13.414Z,13.97
2023-04-20T00:30:40.983Z,13.40
2023-04-20T00:33:08.498Z,11.07
2023-04-20T00:35:35.892Z,11.40
2023-04-20T00:38:03.262Z,13.13
2023-04-20T00:40:30.653Z,12.47
2023-04-20T00:42:58.094Z,12.00
2023-04-20T00:45:25.412Z,12.23
2023-04-20T00:47:52.865Z,13.33
2023-04-20T00:50:20.171Z,12.10
2023-04-20T00:52:47.938Z,12.50
2023-04-20T00:55:15.309Z,13.77
2023-04-20T00:57:43.429Z,11.73
2023-04-20T01:00:11.272Z,11.93
2023-04-20T01:02:38.710Z,14.23
2023-04-20T01:05:06.206Z,12.70
2023-04-20T01:07:33.561Z,11.30
2023-04-20T01:10:00.986Z,11.63
2023-04-20T01:12:28.358Z,13.00
2023-04-20T01:14:55.734Z,11.27
2023-04-20T01:17:24.009Z,11.80
2023-04-20T01:19:51.729Z,12.93
2023-04-20T01:22:20.051Z,11.47
2023-04-20T01:24:47.912Z,12.20
2023-04-20T01:27:16.867Z,11.97
2023-04-20T01:29:44.716Z,11.73
2023-04-20T01:32:12.982Z,11.40
2023-04-20T01:34:40.613Z,11.30
2023-04-20T01:37:08.138Z,15.03
2023-04-20T01:39:37.036Z,11.17
2023-04-20T01:42:04.761Z,13.03
2023-04-20T01:44:32.303Z,14.43
2023-04-20T01:46:59.892Z,11.63
2023-04-20T01:49:27.478Z,14.57
2023-04-20T01:51:55.783Z,10.80
2023-04-20T01:54:23.186Z,11.83
2023-04-20T01:56:50.508Z,12.00
2023-04-20T01:59:18.070Z,11.53
2023-04-20T02:01:45.568Z,13.23
2023-04-20T02:04:13.015Z,11.43
2023-04-20T02:06:40.981Z,11.00
2023-04-20T02:09:09.145Z,12.50
2023-04-20T02:11:36.562Z,12.60
2023-04-20T02:14:04.016Z,11.20
2023-04-20T02:16:31.409Z,13.10
2023-04-20T02:18:58.790Z,10.87
2023-04-20T02:21:26.149Z,10.83
2023-04-20T02:23:53.467Z,14.43
2023-04-20T02:26:20.852Z,12.17
2023-04-20T02:28:48.254Z,14.30
2023-04-20T02:31:15.722Z,11.60
2023-04-20T02:33:43.135Z,11.03
2023-04-20T02:36:10.640Z,15.13
2023-04-20T02:38:38.154Z,11.63
2023-04-20T02:41:05.585Z,15.57
2023-04-20T02:43:34.619Z,11.10
2023-04-20T02:46:02.029Z,11.37
2023-04-20T02:48:29.402Z,12.47
2023-04-20T02:50:57.187Z,14.27
2023-04-20T02:53:24.565Z,12.10
2023-04-20T02:55:51.952Z,15.23
2023-04-20T02:58:19.271Z,13.60
2023-04-20T03:00:47.307Z,11.30
2023-04-20T03:03:14.825Z,14.40
2023-04-20T03:05:42.261Z,13.40
2023-04-20T03:08:09.703Z,12.40
2023-04-20T03:10:37.105Z,12.53
2023-04-20T03:13:04.654Z,18.10
2023-04-20T03:15:32.021Z,15.90
2023-04-20T03:17:59.453Z,14.27
2023-04-20T03:20:27.164Z,13.93
2023-04-20T03:22:54.569Z,15.40
2023-04-20T03:25:22.016Z,16.27
2023-04-20T03:27:49.412Z,16.93
2023-04-20T03:30:16.810Z,14.90
2023-04-20T03:32:44.961Z,13.93
2023-04-20T03:35:12.343Z,16.70
2023-04-20T03:37:39.736Z,14.60
2023-04-20T03:40:08.100Z,15.00
2023-04-20T03:42:35.492Z,15.80
2023-04-20T03:45:02.882Z,14.23
2023-04-20T03:47:30.698Z,14.43
2023-04-20T03:49:58.094Z,14.20
2023-04-20T03:52:25.643Z,14.33
2023-04-20T03:54:53.096Z,16.17
2023-04-20T03:57:20.499Z,18.80
2023-04-20T03:59:47.868Z,16.33
2023-04-20T04:02:15.692Z,14.50
2023-04-20T04:04:43.300Z,18.93
2023-04-20T04:07:10.766Z,15.57
2023-04-20T04:09:38.171Z,13.80
2023-04-20T04:12:06.579Z,14.97
2023-04-20T04:14:34.558Z,16.10
2023-04-20T04:17:02.034Z,15.60
2023-04-20T04:19:29.410Z,15.40
2023-04-20T04:21:56.795Z,14.10
2023-04-20T04:24:24.171Z,16.83
2023-04-20T04:26:51.937Z,15.70
2023-04-20T04:29:19.960Z,22.93
2023-04-20T04:31:47.587Z,14.63
2023-04-20T04:34:15.048Z,19.70
2023-04-20T04:36:43.822Z,16.50
2023-04-20T04:39:11.200Z,17.43
2023-04-20T04:41:38.660Z,13.77
2023-04-20T04:44:06.038Z,15.97
2023-04-20T04:46:33.573Z,16.77
2023-04-20T04:49:01.333Z,15.37
2023-04-20T04:51:28.725Z,14.83
2023-04-20T04:53:56.462Z,13.40
2023-04-20T04:56:23.856Z,17.90
2023-04-20T04:58:51.178Z,15.80
2023-04-20T05:01:18.690Z,16.50
2023-04-20T05:03:46.380Z,15.00
2023-04-20T05:06:13.803Z,14.07
2023-04-20T05:08:41.168Z,15.13
2023-04-20T05:11:08.493Z,17.30
2023-04-20T05:13:35.939Z,16.43
2023-04-20T05:16:03.446Z,15.13
2023-04-20T05:18:30.905Z,15.83
2023-04-20T05:20:58.323Z,14.77
2023-04-20T05:23:25.739Z,13.67
2023-04-20T05:25:53.124Z,13.90
2023-04-20T05:28:20.906Z,14.13
2023-04-20T05:30:48.280Z,14.13
2023-04-20T05:33:15.919Z,13.40
2023-04-20T05:35:43.251Z,15.40
2023-04-20T05:38:10.609Z,13.10
2023-04-20T05:40:37.999Z,13.83
2023-04-20T05:43:05.835Z,12.00
2023-04-20T05:45:34.236Z,14.10
2023-04-20T05:48:01.847Z,14.60
2023-04-20T05:50:29.297Z,12.43
2023-04-20T05:52:56.625Z,13.27
2023-04-20T05:55:24.038Z,13.33
2023-04-20T05:57:52.982Z,15.70
2023-04-20T06:00:20.738Z,13.97
2023-04-20T06:02:48.589Z,12.20
2023-04-20T06:05:16.029Z,11.87
2023-04-20T06:07:43.379Z,12.47
2023-04-20T06:10:10.927Z,12.83
2023-04-20T06:12:38.299Z,11.97
2023-04-20T06:15:07.438Z,11.80
2023-04-20T06:17:39.670Z,12.20
2023-04-20T06:20:08.775Z,10.60
2023-04-20T06:22:36.484Z,13.60
2023-04-20T06:25:04.521Z,12.70
2023-04-20T06:27:31.896Z,11.03
2023-04-20T06:30:01.117Z,11.93
2023-04-20T06:32:28.507Z,12.07
2023-04-20T06:34:56.013Z,11.90
2023-04-20T06:37:23.654Z,11.23
2023-04-20T06:39:57.150Z,11.87
2023-04-20T06:42:24.583Z,12.10
2023-04-20T06:44:51.891Z,11.40
2023-04-20T06:47:19.296Z,11.97
2023-04-20T06:49:46.650Z,12.17
2023-04-20T06:52:14.013Z,13.77
2023-04-20T06:54:41.337Z,11.43
2023-04-20T06:57:08.700Z,11.50
2023-04-20T06:59:36.068Z,11.80
2023-04-20T07:02:03.661Z,12.17
2023-04-20T07:04:31.324Z,13.20
2023-04-20T07:06:58.721Z,11.30
2023-04-20T07:09:26.778Z,14.40
2023-04-20T07:11:55.918Z,11.57
2023-04-20T07:14:23.236Z,12.60
2023-04-20T07:16:53.910Z,12.77
2023-04-20T07:19:21.350Z,13.13
2023-04-20T07:21:48.717Z,13.93
2023-04-20T07:24:16.105Z,12.57
2023-04-20T07:26:43.486Z,12.33
2023-04-20T07:29:11.538Z,11.90
2023-04-20T07:31:38.946Z,12.90
2023-04-20T07:34:06.772Z,11.80
2023-04-20T07:36:34.212Z,11.27
2023-04-20T07:39:01.604Z,13.77
2023-04-20T07:41:28.979Z,11.60
2023-04-20T07:43:56.452Z,12.50
2023-04-20T07:46:23.860Z,11.80
2023-04-20T07:48:51.254Z,11.50
2023-04-20T07:51:18.622Z,13.10
2023-04-20T07:53:46.196Z,13.87
2023-04-20T07:56:13.571Z,14.13
2023-04-20T07:58:41.180Z,16.13
2023-04-20T08:01:08.550Z,14.07
2023-04-20T08:03:36.060Z,16.67
2023-04-20T08:06:03.739Z,21.13
2023-04-20T08:08:31.097Z,15.23
2023-04-20T08:10:58.804Z,13.10
2023-04-20T08:13:27.366Z,13.53
2023-04-20T08:15:54.811Z,14.27
2023-04-20T08:18:22.239Z,13.43
2023-04-20T08:20:50.890Z,14.90
2023-04-20T08:23:18.283Z,13.73
2023-04-20T08:25:45.662Z,11.47
2023-04-20T08:28:19.706Z,11.83
2023-04-20T08:30:42.008Z,12.10
2023-04-20T08:33:09.409Z,12.10
2023-04-20T08:35:36.807Z,11.30
2023-04-20T08:38:04.206Z,11.77
2023-04-20T08:40:32.252Z,13.07
2023-04-20T08:42:59.636Z,12.17
2023-04-20T08:45:27.576Z,9.80
2023-04-20T08:47:55.093Z,10.50
2023-04-20T08:50:22.822Z,11.00
2023-04-20T08:52:50.243Z,11.07
2023-04-20T08:55:18.569Z,10.40
2023-04-20T08:57:46.247Z,13.30
2023-04-20T09:00:14.242Z,10.33
2023-04-20T09:02:55.237Z,11.63
2023-04-20T09:05:27.071Z,14.20
2023-04-20T09:07:56.516Z,15.20
2023-04-20T09:10:24.362Z,10.50
2023-04-20T09:12:54.274Z,11.73
2023-04-20T09:15:29.385Z,11.93
2023-04-20T09:17:57.276Z,11.10
2023-04-20T09:20:28.850Z,14.40
2023-04-20T09:22:56.276Z,14.80
2023-04-20T09:25:24.347Z,11.90
2023-04-20T09:27:59.625Z,10.83
2023-04-20T09:30:28.486Z,11.60
2023-04-20T09:33:02.665Z,13.07
2023-04-20T09:35:30.696Z,11.50
2023-04-20T09:37:58.101Z,13.27
2023-04-20T09:40:27.235Z,16.03
2023-04-20T09:42:54.787Z,12.73
2023-04-20T09:45:22.274Z,15.00
2023-04-20T09:47:50.988Z,13.43
2023-04-20T09:50:26.621Z,14.40
2023-04-20T09:52:50.151Z,13.23
2023-04-20T09:55:17.631Z,13.43
2023-04-20T09:57:45.722Z,16.37
2023-04-20T10:00:13.563Z,13.87
2023-04-20T10:02:41.059Z,15.77
2023-04-20T10:05:08.542Z,14.20
2023-04-20T10:07:35.929Z,15.43
2023-04-20T10:10:11.404Z,20.13
2023-04-20T10:12:48.500Z,17.20
2023-04-20T10:15:16.093Z,15.70
2023-04-20T10:17:44.086Z,14.43
2023-04-20T10:20:21.679Z,13.30
2023-04-20T10:22:51.490Z,12.73
2023-04-20T10:25:23.305Z,13.93
2023-04-20T10:27:55.642Z,14.07
2023-04-20T10:30:23.545Z,14.80
2023-04-20T10:32:51.271Z,19.50
2023-04-20T10:35:18.697Z,12.90
2023-04-20T10:37:50.848Z,13.43
2023-04-20T10:40:19.994Z,13.43
2023-04-20T10:42:47.383Z,12.67
2023-04-20T10:45:14.782Z,13.30
2023-04-20T10:47:42.460Z,11.70
2023-04-20T10:50:14.629Z,14.20
2023-04-20T10:52:43.088Z,12.90
2023-04-20T10:55:21.049Z,12.57
2023-04-20T10:57:48.917Z,13.27
2023-04-20T11:00:17.101Z,12.93
2023-04-20T11:02:49.071Z,12.60
2023-04-20T11:05:17.400Z,16.03
2023-04-20T11:07:49.254Z,14.53
2023-04-20T11:10:16.665Z,13.97
2023-04-20T11:12:44.076Z,16.60
2023-04-20T11:15:11.539Z,12.17
2023-04-20T11:17:39.577Z,14.57
2023-04-20T11:20:08.946Z,13.37
2023-04-20T11:22:36.329Z,14.20
2023-04-20T11:25:07.817Z,12.90
2023-04-20T11:27:36.095Z,13.10
2023-04-20T11:30:07.895Z,14.03
2023-04-20T11:32:36.508Z,13.43
2023-04-20T11:35:08.536Z,11.03
2023-04-20T11:37:37.525Z,12.30
2023-04-20T11:40:08.072Z,16.30
2023-04-20T11:42:35.912Z,17.20
2023-04-20T11:45:03.449Z,12.00
2023-04-20T11:47:30.846Z,19.03
2023-04-20T11:49:58.299Z,20.70
2023-04-20T11:52:25.693Z,14.60
2023-04-20T11:54:53.113Z,19.67
2023-04-20T11:57:22.154Z,15.03
2023-04-20T11:59:49.640Z,18.40
2023-04-20T12:02:17.149Z,12.40
2023-04-20T12:04:44.748Z,18.60
2023-04-20T12:07:12.268Z,16.20
2023-04-20T12:09:40.196Z,13.53
2023-04-20T12:12:11.134Z,11.73
2023-04-20T12:14:38.511Z,14.33
2023-04-20T12:17:05.960Z,12.47
2023-04-20T12:19:33.444Z,13.00
2023-04-20T12:22:00.965Z,12.63
2023-04-20T12:24:28.451Z,13.17
2023-04-20T12:26:55.879Z,18.60
2023-04-20T12:29:23.307Z,17.00
2023-04-20T12:31:50.789Z,14.17
2023-04-20T12:34:18.753Z,12.63
2023-04-20T12:36:46.414Z,12.80
2023-04-20T12:39:13.807Z,13.20
2023-04-20T12:41:42.258Z,13.90
2023-04-20T12:44:11.553Z,12.53
2023-04-20T12:46:39.187Z,13.10
2023-04-20T12:49:06.618Z,15.17
2023-04-20T12:51:34.087Z,14.00
2023-04-20T12:54:01.512Z,13.10
2023-04-20T12:56:28.840Z,12.90
2023-04-20T12:58:56.328Z,13.23
2023-04-20T13:01:23.782Z,12.73
2023-04-20T13:03:52.447Z,14.00
2023-04-20T13:06:20.358Z,14.27
2023-04-20T13:08:48.053Z,12.57
2023-04-20T13:11:17.160Z,12.47
2023-04-20T13:13:45.311Z,13.20
2023-04-20T13:16:12.757Z,11.73
2023-04-20T13:18:40.103Z,15.13
2023-04-20T13:21:08.206Z,12.13
2023-04-20T13:23:37.219Z,14.80
2023-04-20T13:26:04.632Z,12.17
2023-04-20T13:28:32.018Z,12.93
2023-04-20T13:30:59.350Z,14.70
2023-04-20T13:33:26.757Z,12.83
2023-04-20T13:35:54.128Z,12.97
2023-04-20T13:38:21.594Z,11.73
2023-04-20T13:40:48.996Z,11.33
2023-04-20T13:43:16.381Z,11.53
2023-04-20T13:45:44.098Z,11.43
2023-04-20T13:48:11.460Z,11.40
2023-04-20T13:50:38.847Z,13.07
2023-04-20T13:53:06.278Z,12.87
2023-04-20T13:55:33.712Z,10.70
2023-04-20T13:58:01.113Z,12.57
2023-04-20T14:00:28.538Z,10.70
2023-04-20T14:02:56.075Z,11.20
2023-04-20T14:05:23.550Z,11.23
2023-04-20T14:07:50.970Z,9.93
2023-04-20T14:10:18.388Z,11.20
2023-04-20T14:12:45.790Z,12.60
2023-04-20T14:15:13.919Z,12.30
2023-04-20T14:17:41.322Z,14.00
2023-04-20T14:20:09.161Z,13.97
2023-04-20T14:22:37.280Z,12.47
2023-04-20T14:25:05.345Z,12.47
2023-04-20T14:27:33.083Z,12.10
2023-04-20T14:30:00.574Z,12.70
2023-04-20T14:32:27.997Z,13.03
2023-04-20T14:34:55.387Z,12.47
2023-04-20T14:37:24.418Z,12.20
2023-04-20T14:39:51.799Z,10.23
2023-04-20T14:42:19.606Z,12.07
2023-04-20T14:44:48.625Z,11.17
2023-04-20T14:47:16.325Z,10.53
2023-04-20T14:49:44.427Z,11.53
2023-04-20T14:52:12.074Z,13.30
2023-04-20T14:54:39.487Z,11.20
2023-04-20T14:57:07.070Z,13.13
2023-04-20T14:59:34.471Z,15.20
2023-04-20T15:02:03.278Z,11.77
2023-04-20T15:04:31.193Z,12.10
2023-04-20T15:06:58.752Z,12.80
2023-04-20T15:09:26.119Z,11.10
2023-04-20T15:11:53.527Z,10.77
2023-04-20T15:14:20.980Z,11.17
2023-04-20T15:16:48.426Z,14.17
2023-04-20T15:19:16.277Z,14.83
2023-04-20T15:21:44.647Z,15.77
2023-04-20T15:24:12.228Z,15.07
2023-04-20T15:26:39.623Z,13.67
2023-04-20T15:29:07.014Z,12.50
2023-04-20T15:31:34.475Z,11.63
2023-04-20T15:34:01.851Z,12.10
2023-04-20T15:36:30.035Z,13.57
2023-04-20T15:38:58.023Z,11.57
2023-04-20T15:41:25.594Z,12.90
2023-04-20T15:43:53.087Z,16.10
2023-04-20T15:46:22.227Z,13.20
2023-04-20T15:48:49.694Z,13.00
2023-04-20T15:51:18.737Z,15.73
2023-04-20T15:53:47.907Z,13.83
2023-04-20T15:56:15.287Z,15.67
2023-04-20T15:58:42.698Z,14.37
2023-04-20T16:01:10.120Z,16.93
2023-04-20T16:03:39.074Z,13.20
2023-04-20T16:06:07.212Z,23.77
2023-04-20T16:08:34.582Z,14.43
2023-04-20T16:11:01.960Z,17.63
2023-04-20T16:13:29.347Z,16.37
2023-04-20T16:15:56.831Z,13.80
2023-04-20T16:18:24.274Z,14.07
2023-04-20T16:20:51.639Z,14.50
2023-04-20T16:23:19.025Z,15.10
2023-04-20T16:25:47.002Z,15.33
2023-04-20T16:28:14.422Z,14.77
2023-04-20T16:30:41.828Z,14.57
2023-04-20T16:33:09.218Z,15.03
2023-04-20T16:35:36.615Z,15.10
2023-04-20T16:38:04.074Z,15.80
2023-04-20T16:40:31.430Z,14.80
2023-04-20T16:42:58.864Z,15.00
2023-04-20T16:45:26.259Z,19.23
2023-04-20T16:47:53.698Z,14.77
2023-04-20T16:50:21.641Z,15.63
2023-04-20T16:52:49.593Z,16.50
2023-04-20T16:55:17.015Z,16.60
2023-04-20T16:57:44.699Z,15.33
2023-04-20T17:00:12.850Z,15.90
2023-04-20T17:02:40.238Z,17.50
2023-04-20T17:05:08.010Z,18.20
2023-04-20T17:07:36.865Z,17.37
2023-04-20T17:10:04.672Z,17.20
2023-04-20T17:12:32.063Z,18.37
2023-04-20T17:15:00.565Z,20.60
2023-04-20T17:17:28.160Z,17.90
2023-04-20T17:19:55.723Z,18.10
2023-04-20T17:22:24.943Z,17.50
2023-04-20T17:24:52.750Z,17.10
2023-04-20T17:27:21.623Z,17.63
2023-04-20T17:29:49.695Z,18.83
2023-04-20T17:32:17.244Z,18.57
2023-04-20T17:34:48.356Z,20.53
2023-04-20T17:37:15.902Z,20.20
2023-04-20T17:39:43.292Z,18.20
2023-04-20T17:42:10.747Z,33.90
2023-04-20T17:44:38.393Z,18.83
2023-04-20T17:47:06.274Z,19.43
2023-04-20T17:49:34.625Z,20.50
2023-04-20T17:52:02.015Z,26.33
2023-04-20T17:54:29.612Z,22.07
2023-04-20T17:56:57.936Z,22.90
2023-04-20T17:59:25.345Z,21.43
2023-04-20T18:01:52.942Z,24.27
2023-04-20T18:04:21.105Z,21.37
2023-04-20T18:06:49.319Z,19.57
2023-04-20T18:09:17.770Z,21.57
2023-04-20T18:11:45.173Z,25.10
2023-04-20T18:14:12.602Z,22.60
2023-04-20T18:16:39.974Z,22.73
2023-04-20T18:19:07.382Z,22.97
2023-04-20T18:21:34.821Z,24.90
2023-04-20T18:24:02.638Z,25.93
2023-04-20T18:26:30.068Z,24.00
2023-04-20T18:28:57.462Z,23.77
2023-04-20T18:31:24.938Z,25.70
2023-04-20T18:33:52.273Z,26.37
2023-04-20T18:36:19.668Z,25.70
2023-04-20T18:38:47.371Z,23.67
2023-04-20T18:41:14.790Z,24.90
2023-04-20T18:43:43.853Z,24.23
2023-04-20T18:46:11.292Z,26.43
2023-04-20T18:48:39.024Z,31.30
2023-04-20T18:51:06.410Z,28.20
2023-04-20T18:53:34.379Z,26.13
2023-04-20T18:56:02.118Z,27.57
2023-04-20T18:58:31.003Z,26.90
2023-04-20T19:01:00.663Z,34.50
2023-04-20T19:03:28.170Z,32.20
2023-04-20T19:05:55.521Z,28.30
2023-04-20T19:08:23.404Z,30.80
2023-04-20T19:10:51.043Z,35.33
2023-04-20T19:13:18.443Z,28.20
2023-04-20T19:15:45.825Z,27.90
2023-04-20T19:18:13.229Z,29.23
2023-04-20T19:20:40.606Z,28.47
2023-04-20T19:23:08.018Z,28.30
2023-04-20T19:25:37.101Z,26.60
2023-04-20T19:28:04.718Z,21.47
2023-04-20T19:30:32.130Z,23.70
2023-04-20T19:33:01.175Z,20.10
2023-04-20T19:35:29.000Z,23.03
2023-04-20T19:37:56.372Z,20.97
2023-04-20T19:40:24.546Z,22.33
2023-04-20T19:42:51.918Z,19.97
2023-04-20T19:45:19.394Z,20.90
2023-04-20T19:47:46.891Z,19.07
2023-04-20T19:50:14.252Z,20.80
2023-04-20T19:52:41.638Z,18.40
2023-04-20T19:55:09.190Z,17.73
2023-04-20T19:57:36.579Z,20.60
2023-04-20T20:00:05.221Z,27.07
2023-04-20T20:02:32.869Z,22.40
2023-04-20T20:05:00.373Z,21.10
2023-04-20T20:07:27.909Z,18.00
2023-04-20T20:09:55.361Z,20.97
2023-04-20T20:12:22.687Z,22.33
2023-04-20T20:14:50.063Z,19.10
2023-04-20T20:17:19.165Z,20.83
2023-04-20T20:19:46.607Z,24.80
2023-04-20T20:22:14.005Z,18.27
2023-04-20T20:24:43.073Z,19.10
2023-04-20T20:27:11.492Z,20.93
2023-04-20T20:29:38.904Z,19.13
2023-04-20T20:32:06.297Z,19.40
2023-04-20T20:34:33.677Z,18.70
2023-04-20T20:37:02.716Z,24.70
2023-04-20T20:39:30.651Z,23.20
2023-04-20T20:41:58.104Z,24.33
2023-04-20T20:44:27.454Z,24.23
2023-04-20T20:46:55.405Z,26.73
2023-04-20T20:49:22.798Z,26.97
2023-04-20T20:51:50.191Z,27.73
2023-04-20T20:54:17.569Z,28.47
2023-04-20T20:56:44.963Z,30.00
2023-04-20T20:59:12.338Z,32.40
2023-04-20T21:01:39.685Z,24.37
2023-04-20T21:04:07.242Z,23.37
2023-04-20T21:06:34.688Z,24.53
2023-04-20T21:09:02.068Z,27.33
2023-04-20T21:11:29.495Z,25.23
2023-04-20T21:13:58.545Z,27.23
2023-04-20T21:16:25.997Z,25.43
2023-04-20T21:18:53.338Z,22.83
2023-04-20T21:21:20.735Z,24.20
2023-04-20T21:23:48.925Z,27.17
2023-04-20T21:26:16.364Z,26.13
2023-04-20T21:28:43.829Z,30.73
2023-04-20T21:31:11.236Z,31.87
2023-04-20T21:33:38.924Z,30.07
2023-04-20T21:36:06.652Z,28.60
2023-04-20T21:38:34.044Z,30.83
2023-04-20T21:41:01.398Z,32.87
2023-04-20T21:43:28.812Z,27.50
2023-04-20T21:45:56.301Z,26.37
2023-04-20T21:48:23.731Z,29.90
2023-04-20T21:50:51.150Z,37.60
2023-04-20T21:53:18.600Z,31.00
2023-04-20T21:55:45.936Z,26.80
2023-04-20T21:58:13.399Z,25.20
2023-04-20T22:00:40.804Z,27.60
2023-04-20T22:03:08.299Z,29.23
2023-04-20T22:05:36.272Z,31.87
2023-04-20T22:08:03.762Z,32.30
2023-04-20T22:10:31.518Z,30.07
2023-04-20T22:12:59.006Z,34.83
2023-04-20T22:15:27.364Z,26.00
2023-04-20T22:17:54.815Z,31.70
2023-04-20T22:20:22.276Z,28.53
2023-04-20T22:22:49.736Z,27.30
2023-04-20T22:25:17.151Z,27.57
2023-04-20T22:27:44.621Z,29.73
2023-04-20T22:30:12.293Z,34.63
2023-04-20T22:32:39.727Z,30.03
2023-04-20T22:35:07.657Z,28.87
2023-04-20T22:37:35.148Z,29.47
2023-04-20T22:40:03.921Z,36.77
2023-04-20T22:42:31.340Z,33.80
2023-04-20T22:44:58.761Z,31.00
2023-04-20T22:47:26.499Z,43.70
2023-04-20T22:49:54.580Z,33.67
2023-04-20T22:52:22.005Z,33.60
2023-04-20T22:54:49.395Z,38.87
2023-04-20T22:57:17.974Z,45.43
2023-04-20T22:59:45.546Z,47.87
2023-04-20T23:02:13.070Z,45.80
2023-04-20T23:04:40.567Z,51.70
2023-04-20T23:07:08.048Z,43.80
2023-04-20T23:09:37.116Z,40.70
2023-04-20T23:12:04.986Z,51.87
2023-04-20T23:14:32.508Z,43.00
2023-04-20T23:17:00.330Z,45.60
2023-04-20T23:19:28.195Z,47.10
2023-04-20T23:21:55.612Z,48.10
2023-04-20T23:24:23.001Z,40.30
2023-04-20T23:26:50.486Z,51.23
2023-04-20T23:29:18.092Z,50.77
2023-04-20T23:31:45.882Z,43.50
2023-04-20T23:34:13.221Z,43.63
2023-04-20T23:36:40.591Z,51.10
2023-04-20T23:39:08.016Z,46.43
2023-04-20T23:41:35.888Z,47.00
2023-04-20T23:44:03.274Z,50.20
2023-04-20T23:46:31.234Z,56.80
2023-04-20T23:48:58.796Z,225.53
2023-04-20T23:51:26.876Z,78.53
2023-04-20T23:53:54.302Z,270.73
2023-04-20T23:56:21.713Z,92.03
2023-04-20T23:58:49.098Z,445.23
